createdAt,value
2023-01-07T00:01:33.471Z,6.92
2023-01-07T00:04:01.955Z,6.52
2023-01-07T00:06:31.614Z,6.55
2023-01-07T00:08:58.738Z,5.64
2023-01-07T00:11:35.106Z,6.60
2023-01-07T00:14:03.562Z,6.52
2023-01-07T00:16:32.299Z,6.21
2023-01-07T00:19:00.841Z,4.63
2023-01-07T00:21:28.714Z,6.30
2023-01-07T00:29:26.826Z,5.50
2023-01-07T00:34:46.025Z,6.17
2023-01-07T00:37:12.701Z,6.23
2023-01-07T00:39:41.290Z,6.24
2023-01-07T00:42:17.146Z,6.22
2023-01-07T00:44:43.913Z,6.37
2023-01-07T00:47:10.577Z,6.38
2023-01-07T00:49:37.456Z,6.18
2023-01-07T00:52:04.322Z,6.31
2023-01-07T00:54:31.169Z,6.34
2023-01-07T00:56:58.761Z,6.12
2023-01-07T00:59:25.761Z,6.29
2023-01-07T01:01:52.487Z,6.13
2023-01-07T01:04:19.320Z,6.08
2023-01-07T01:06:46.085Z,5.93
2023-01-07T01:09:12.790Z,5.97
2023-01-07T01:11:40.044Z,5.96
2023-01-07T01:14:06.756Z,5.99
2023-01-07T01:16:33.388Z,5.93
2023-01-07T01:19:00.187Z,6.04
2023-01-07T01:21:27.359Z,5.78
2023-01-07T01:23:54.012Z,5.93
2023-01-07T01:26:21.517Z,5.93
2023-01-07T01:28:48.231Z,5.93
2023-01-07T01:31:20.032Z,5.82
2023-01-07T01:33:54.134Z,5.60
2023-01-07T01:36:21.238Z,5.78
2023-01-07T01:38:48.021Z,5.96
2023-01-07T01:41:15.228Z,5.87
2023-01-07T01:43:44.132Z,5.99
2023-01-07T01:46:15.965Z,5.89
2023-01-07T01:48:52.017Z,5.95
2023-01-07T01:51:22.143Z,5.93
2023-01-07T01:53:49.027Z,6.08
2023-01-07T01:56:25.823Z,6.07
2023-01-07T01:58:58.969Z,6.23
2023-01-07T02:01:26.847Z,5.79
2023-01-07T02:03:54.914Z,5.67
2023-01-07T02:06:25.412Z,5.72
2023-01-07T02:08:53.443Z,6.11
2023-01-07T02:11:30.236Z,5.90
2023-01-07T02:14:02.639Z,5.98
2023-01-07T02:17:04.472Z,5.80
2023-01-07T02:20:01.984Z,5.82
2023-01-07T02:22:49.807Z,6.00
2023-01-07T02:25:31.456Z,5.84
2023-01-07T02:28:29.975Z,5.91
2023-01-07T02:31:34.099Z,6.14
2023-01-07T02:34:13.264Z,6.17
2023-01-07T02:36:46.731Z,6.18
2023-01-07T02:39:41.586Z,6.20
2023-01-07T02:42:17.727Z,6.50
2023-01-07T02:45:02.302Z,6.42
2023-01-07T02:47:31.878Z,6.46
2023-01-07T02:50:00.431Z,6.13
2023-01-07T02:52:30.131Z,6.60
2023-01-07T02:55:02.749Z,6.49
2023-01-07T02:57:51.591Z,6.47
2023-01-07T03:00:41.327Z,6.66
2023-01-07T03:03:26.892Z,6.68
2023-01-07T03:06:46.900Z,6.54
2023-01-07T03:09:31.958Z,6.57
2023-01-07T03:12:19.808Z,6.44
2023-01-07T03:15:08.515Z,6.50
2023-01-07T03:17:42.503Z,6.58
2023-01-07T03:20:11.640Z,6.49
2023-01-07T03:22:41.359Z,6.75
2023-01-07T03:25:09.429Z,6.77
2023-01-07T03:27:36.890Z,6.84
2023-01-07T03:30:09.325Z,6.85
2023-01-07T03:32:42.775Z,6.81
2023-01-07T03:35:10.233Z,6.58
2023-01-07T03:37:38.403Z,6.79
2023-01-07T03:40:07.818Z,6.84
2023-01-07T03:42:34.678Z,6.97
2023-01-07T03:45:01.506Z,6.98
2023-01-07T03:47:31.024Z,6.93
2023-01-07T03:49:57.794Z,7.00
2023-01-07T03:52:24.507Z,6.91
2023-01-07T03:54:51.814Z,6.92
2023-01-07T03:57:18.701Z,6.61
2023-01-07T03:59:45.582Z,6.64
2023-01-07T04:02:12.766Z,6.79
2023-01-07T04:04:39.941Z,6.91
2023-01-07T04:07:07.069Z,6.95
2023-01-07T04:09:33.973Z,6.99
2023-01-07T04:12:00.613Z,6.98
2023-01-07T04:14:27.404Z,7.08
2023-01-07T04:16:54.149Z,7.17
2023-01-07T04:19:21.987Z,7.19
2023-01-07T04:21:48.783Z,6.90
2023-01-07T04:24:15.744Z,6.90
2023-01-07T04:26:42.824Z,6.89
2023-01-07T04:29:11.373Z,6.76
2023-01-07T04:31:38.613Z,6.78
2023-01-07T04:34:05.564Z,6.70
2023-01-07T04:36:32.427Z,6.44
2023-01-07T04:38:59.318Z,6.51
2023-01-07T04:41:26.161Z,6.67
2023-01-07T04:43:53.504Z,6.67
2023-01-07T04:46:20.195Z,6.46
2023-01-07T04:48:47.829Z,6.46
2023-01-07T04:51:14.758Z,6.47
2023-01-07T04:53:41.878Z,6.02
2023-01-07T04:56:08.843Z,6.13
2023-01-07T04:58:35.691Z,6.16
2023-01-07T05:01:04.010Z,6.28
2023-01-07T05:03:34.134Z,6.31
2023-01-07T05:06:01.289Z,6.13
2023-01-07T05:08:28.277Z,6.01
2023-01-07T05:10:55.734Z,5.97
2023-01-07T05:13:23.900Z,5.95
2023-01-07T05:15:51.479Z,5.87
2023-01-07T05:18:19.775Z,5.65
2023-01-07T05:20:47.190Z,5.64
2023-01-07T05:23:14.201Z,5.57
2023-01-07T05:25:42.355Z,5.66
2023-01-07T05:28:09.763Z,5.41
2023-01-07T05:30:38.223Z,5.40
2023-01-07T05:33:06.455Z,5.58
2023-01-07T05:35:35.070Z,5.24
2023-01-07T05:38:02.308Z,5.75
2023-01-07T05:40:29.431Z,5.84
2023-01-07T05:42:56.126Z,5.80
2023-01-07T05:45:22.788Z,5.59
2023-01-07T05:47:49.495Z,5.45
2023-01-07T05:50:16.305Z,5.99
2023-01-07T05:52:43.080Z,5.97
2023-01-07T05:55:12.064Z,6.10
2023-01-07T05:57:39.379Z,6.20
2023-01-07T06:00:06.786Z,6.06
2023-01-07T06:02:38.575Z,6.06
2023-01-07T06:05:05.737Z,6.14
2023-01-07T06:07:32.485Z,6.19
2023-01-07T06:09:59.919Z,6.15
2023-01-07T06:12:27.879Z,5.82
2023-01-07T06:14:54.644Z,5.90
2023-01-07T06:17:21.233Z,5.65
2023-01-07T06:19:47.962Z,5.99
2023-01-07T06:22:15.205Z,5.82
2023-01-07T06:24:41.906Z,5.97
2023-01-07T06:27:10.264Z,5.91
2023-01-07T06:29:37.104Z,5.99
2023-01-07T06:32:04.030Z,5.62
2023-01-07T06:34:30.687Z,5.93
2023-01-07T06:36:57.383Z,5.87
2023-01-07T06:39:24.145Z,5.73
2023-01-07T06:41:50.738Z,5.87
2023-01-07T06:44:17.557Z,5.67
2023-01-07T06:46:44.239Z,5.55
2023-01-07T06:49:11.545Z,5.32
2023-01-07T06:51:38.374Z,5.58
2023-01-07T06:54:05.085Z,5.43
2023-01-07T06:56:32.349Z,5.40
2023-01-07T06:58:59.097Z,5.42
2023-01-07T07:01:25.936Z,5.51
2023-01-07T07:03:52.839Z,5.52
2023-01-07T07:06:19.523Z,5.41
2023-01-07T07:08:46.252Z,5.31
2023-01-07T07:11:12.864Z,5.33
2023-01-07T07:13:39.957Z,5.44
2023-01-07T07:16:07.134Z,5.47
2023-01-07T07:18:33.948Z,5.54
2023-01-07T07:21:00.741Z,5.59
2023-01-07T07:23:27.389Z,5.57
2023-01-07T07:25:53.998Z,5.70
2023-01-07T07:28:20.789Z,5.82
2023-01-07T07:30:48.401Z,5.95
2023-01-07T07:33:16.011Z,6.11
2023-01-07T07:35:42.685Z,6.31
2023-01-07T07:38:09.439Z,6.40
2023-01-07T07:40:36.449Z,6.43
2023-01-07T07:43:10.781Z,6.45
2023-01-07T07:45:40.482Z,6.60
2023-01-07T07:48:12.321Z,6.67
2023-01-07T07:50:39.257Z,6.74
2023-01-07T07:53:05.984Z,6.81
2023-01-07T07:55:32.749Z,6.49
2023-01-07T07:57:59.309Z,6.36
2023-01-07T08:00:26.251Z,6.35
2023-01-07T08:02:52.938Z,6.18
2023-01-07T08:05:19.673Z,6.26
2023-01-07T08:07:46.352Z,6.25
2023-01-07T08:10:13.180Z,6.39
2023-01-07T08:12:39.837Z,6.50
2023-01-07T08:15:08.043Z,6.45
2023-01-07T08:17:35.245Z,6.33
2023-01-07T08:20:02.808Z,6.43
2023-01-07T08:22:29.399Z,6.28
2023-01-07T08:24:56.246Z,5.88
2023-01-07T08:27:22.820Z,5.77
2023-01-07T08:29:49.515Z,5.67
2023-01-07T08:32:16.227Z,5.99
2023-01-07T08:34:43.005Z,5.97
2023-01-07T08:37:09.640Z,5.92
2023-01-07T08:39:36.458Z,5.97
2023-01-07T08:42:03.477Z,6.15
2023-01-07T08:44:30.301Z,6.01
2023-01-07T08:46:56.991Z,6.23
2023-01-07T08:49:23.643Z,6.25
2023-01-07T08:51:50.232Z,6.28
2023-01-07T08:54:17.131Z,6.43
2023-01-07T08:56:43.723Z,6.53
2023-01-07T08:59:10.433Z,6.27
2023-01-07T09:01:37.328Z,6.36
2023-01-07T09:04:04.262Z,6.39
2023-01-07T09:06:30.844Z,6.47
2023-01-07T09:08:57.590Z,6.19
2023-01-07T09:11:24.256Z,6.04
2023-01-07T09:13:50.950Z,6.18
2023-01-07T09:16:17.753Z,6.51
2023-01-07T09:18:44.564Z,6.42
2023-01-07T09:21:11.180Z,6.36
2023-01-07T09:23:37.896Z,6.21
2023-01-07T09:26:04.536Z,6.23
2023-01-07T09:28:31.339Z,6.29
2023-01-07T09:30:58.219Z,6.22
2023-01-07T09:33:24.890Z,6.12
2023-01-07T09:35:51.499Z,6.36
2023-01-07T09:38:18.254Z,6.56
2023-01-07T09:40:45.443Z,6.66
2023-01-07T09:43:14.877Z,6.84
2023-01-07T09:45:48.955Z,6.78
2023-01-07T09:48:41.195Z,6.70
2023-01-07T09:51:23.829Z,6.73
2023-01-07T09:53:52.587Z,6.46
2023-01-07T09:56:27.798Z,6.23
2023-01-07T09:58:56.089Z,6.38
2023-01-07T10:01:50.887Z,6.45
2023-01-07T10:04:54.937Z,6.52
2023-01-07T10:07:33.754Z,6.51
2023-01-07T10:10:08.303Z,6.28
2023-01-07T10:12:53.111Z,6.48
2023-01-07T10:15:59.235Z,6.02
2023-01-07T10:18:50.492Z,5.90
2023-01-07T10:21:25.467Z,6.23
2023-01-07T10:24:22.065Z,5.93
2023-01-07T10:26:52.948Z,5.56
2023-01-07T10:29:30.947Z,5.75
2023-01-07T10:32:04.104Z,6.21
2023-01-07T10:34:38.380Z,6.27
2023-01-07T10:37:33.236Z,6.23
2023-01-07T10:40:12.366Z,6.27
2023-01-07T10:42:47.171Z,6.54
2023-01-07T10:45:38.912Z,6.87
2023-01-07T10:48:27.767Z,6.96
2023-01-07T10:51:45.473Z,7.11
2023-01-07T10:54:17.835Z,7.01
2023-01-07T10:57:02.939Z,6.83
2023-01-07T10:59:30.391Z,6.64
2023-01-07T11:01:59.280Z,6.33
2023-01-07T11:04:26.851Z,5.93
2023-01-07T11:06:59.179Z,5.97
2023-01-07T11:09:31.025Z,6.06
2023-01-07T11:12:36.474Z,5.59
2023-01-07T11:15:08.713Z,5.85
2023-01-07T11:17:40.444Z,5.84
2023-01-07T11:20:07.982Z,5.75
2023-01-07T11:22:38.279Z,5.73
2023-01-07T11:25:41.773Z,5.88
2023-01-07T11:28:18.331Z,5.78
2023-01-07T11:30:55.116Z,5.84
2023-01-07T11:34:02.419Z,5.61
2023-01-07T11:36:15.508Z,5.51
2023-01-07T11:38:42.574Z,5.46
2023-01-07T11:41:26.140Z,5.50
2023-01-07T11:43:54.597Z,5.51
2023-01-07T11:46:25.895Z,5.82
2023-01-07T11:48:55.717Z,5.55
2023-01-07T11:51:24.043Z,5.70
2023-01-07T11:53:50.697Z,5.82
2023-01-07T11:56:20.083Z,5.74
2023-01-07T11:58:52.111Z,5.88
2023-01-07T12:01:21.519Z,5.76
2023-01-07T12:03:54.379Z,5.48
2023-01-07T12:06:26.472Z,5.39
2023-01-07T12:09:04.473Z,5.20
2023-01-07T12:11:38.007Z,5.03
2023-01-07T12:14:18.607Z,5.41
2023-01-07T12:16:47.251Z,5.43
2023-01-07T12:19:16.909Z,5.45
2023-01-07T12:22:04.789Z,5.72
2023-01-07T12:24:58.609Z,5.67
2023-01-07T12:27:47.461Z,5.86
2023-01-07T12:30:37.352Z,6.01
2023-01-07T12:33:10.186Z,6.13
2023-01-07T12:35:41.601Z,5.49
2023-01-07T12:38:14.479Z,5.20
2023-01-07T12:40:58.338Z,5.50
2023-01-07T12:43:28.401Z,5.63
2023-01-07T12:45:59.276Z,5.55
2023-01-07T12:48:40.721Z,5.54
2023-01-07T12:51:36.554Z,5.73
2023-01-07T12:54:21.586Z,5.85
2023-01-07T12:56:55.409Z,5.87
2023-01-07T12:59:45.660Z,6.20
2023-01-07T13:02:19.216Z,6.25
2023-01-07T13:05:04.641Z,6.24
2023-01-07T13:07:53.091Z,6.29
2023-01-07T13:10:26.059Z,6.18
2023-01-07T13:13:07.619Z,6.13
2023-01-07T13:15:38.616Z,6.12
2023-01-07T13:18:11.214Z,6.32
2023-01-07T13:20:43.935Z,6.26
2023-01-07T13:23:23.910Z,5.92
2023-01-07T13:26:04.650Z,5.97
2023-01-07T13:28:46.342Z,5.57
2023-01-07T13:31:19.081Z,5.69
2023-01-07T13:33:57.975Z,5.77
2023-01-07T13:36:45.723Z,5.71
2023-01-07T13:39:54.034Z,5.76
2023-01-07T13:42:46.645Z,5.76
2023-01-07T13:45:32.199Z,5.75
2023-01-07T13:48:02.102Z,5.79
2023-01-07T13:50:45.208Z,5.58
2023-01-07T13:53:15.103Z,5.46
2023-01-07T13:55:46.591Z,5.33
2023-01-07T13:58:31.685Z,5.45
2023-01-07T14:01:03.134Z,5.44
2023-01-07T14:03:43.629Z,5.40
2023-01-07T14:06:19.579Z,5.29
2023-01-07T14:08:51.035Z,5.27
2023-01-07T14:11:37.569Z,5.35
2023-01-07T14:14:22.931Z,5.35
2023-01-07T14:17:13.465Z,5.29
2023-01-07T14:20:12.399Z,5.33
2023-01-07T14:23:03.552Z,5.45
2023-01-07T14:25:47.025Z,5.41
2023-01-07T14:28:36.876Z,5.16
2023-01-07T14:31:04.625Z,5.17
2023-01-07T14:33:34.118Z,5.19
2023-01-07T14:36:05.529Z,5.25
2023-01-07T14:38:32.292Z,5.30
2023-01-07T14:41:09.725Z,5.38
2023-01-07T14:43:42.639Z,5.38
2023-01-07T14:46:30.355Z,5.25
2023-01-07T14:48:59.940Z,5.16
2023-01-07T14:52:20.557Z,5.49
2023-01-07T14:55:02.475Z,5.58
2023-01-07T14:58:13.996Z,5.52
2023-01-07T15:00:55.596Z,5.66
2023-01-07T15:03:40.550Z,5.61
2023-01-07T15:06:22.556Z,5.67
2023-01-07T15:09:01.005Z,5.57
2023-01-07T15:11:28.560Z,5.48
2023-01-07T15:14:04.282Z,5.71
2023-01-07T15:16:34.285Z,5.76
2023-01-07T15:19:01.063Z,5.86
2023-01-07T15:21:37.178Z,5.44
2023-01-07T15:24:25.407Z,5.31
2023-01-07T15:27:19.629Z,5.58
2023-01-07T15:30:01.385Z,5.44
2023-01-07T15:32:53.584Z,5.65
2023-01-07T15:35:25.358Z,5.62
2023-01-07T15:37:52.210Z,5.41
2023-01-07T15:40:22.761Z,5.50
2023-01-07T15:42:53.042Z,5.67
2023-01-07T15:45:22.923Z,5.50
2023-01-07T15:47:50.565Z,5.06
2023-01-07T15:50:31.729Z,5.12
2023-01-07T15:53:17.223Z,5.13
2023-01-07T15:55:58.453Z,4.98
2023-01-07T15:58:38.937Z,5.13
2023-01-07T16:01:08.024Z,5.25
2023-01-07T16:03:38.923Z,5.08
2023-01-07T16:06:31.492Z,5.20
2023-01-07T16:08:59.027Z,5.21
2023-01-07T16:11:29.256Z,5.24
2023-01-07T16:14:01.844Z,5.38
2023-01-07T16:16:30.861Z,5.23
2023-01-07T16:19:02.704Z,5.05
2023-01-07T16:21:35.435Z,4.99
2023-01-07T16:24:02.688Z,4.73
2023-01-07T16:26:43.497Z,5.02
2023-01-07T16:29:18.645Z,5.09
2023-01-07T16:31:46.407Z,5.21
2023-01-07T16:34:25.311Z,5.16
2023-01-07T16:36:57.340Z,5.18
2023-01-07T16:39:27.999Z,5.16
2023-01-07T16:41:55.239Z,4.83
2023-01-07T16:44:58.245Z,4.80
2023-01-07T16:47:27.560Z,5.18
2023-01-07T16:49:59.203Z,5.29
2023-01-07T16:52:31.547Z,4.98
2023-01-07T16:54:58.285Z,5.00
2023-01-07T16:57:41.252Z,5.33
2023-01-07T17:00:19.286Z,5.58
2023-01-07T17:02:58.196Z,5.12
2023-01-07T17:05:31.064Z,4.95
2023-01-07T17:08:19.173Z,4.93
2023-01-07T17:10:57.555Z,4.95
2023-01-07T17:13:24.606Z,4.96
2023-01-07T17:15:51.249Z,4.93
2023-01-07T17:18:17.974Z,4.89
2023-01-07T17:20:49.995Z,4.85
2023-01-07T17:23:41.323Z,4.81
2023-01-07T17:26:10.786Z,4.90
2023-01-07T17:28:46.671Z,5.01
2023-01-07T17:31:13.795Z,4.83
2023-01-07T17:33:42.342Z,4.88
2023-01-07T17:36:26.180Z,4.97
2023-01-07T17:38:53.242Z,4.79
2023-01-07T17:41:21.845Z,4.82
2023-01-07T17:43:48.520Z,4.86
2023-01-07T17:46:15.195Z,4.69
2023-01-07T17:48:41.979Z,4.73
2023-01-07T17:54:03.166Z,4.66
2023-01-07T17:56:30.066Z,4.52
2023-01-07T17:58:56.701Z,4.74
2023-01-07T18:01:24.052Z,4.53
2023-01-07T18:03:52.458Z,4.49
2023-01-07T18:06:21.983Z,4.53
2023-01-07T18:08:50.192Z,4.44
2023-01-07T18:11:20.722Z,4.55
2023-01-07T18:13:47.437Z,4.72
2023-01-07T18:16:14.952Z,4.43
2023-01-07T18:18:41.778Z,4.52
2023-01-07T18:21:11.447Z,4.68
2023-01-07T18:23:38.335Z,4.80
2023-01-07T18:26:06.235Z,4.87
2023-01-07T18:28:32.905Z,4.87
2023-01-07T18:30:59.541Z,4.87
2023-01-07T18:33:26.397Z,4.91
2023-01-07T18:35:52.977Z,4.93
2023-01-07T18:38:19.652Z,4.82
2023-01-07T18:40:46.476Z,4.87
2023-01-07T18:43:18.107Z,4.67
2023-01-07T18:45:46.334Z,4.62
2023-01-07T18:48:14.494Z,4.54
2023-01-07T18:50:46.997Z,4.52
2023-01-07T18:53:15.774Z,4.67
2023-01-07T18:55:46.338Z,4.55
2023-01-07T18:58:15.370Z,4.61
2023-01-07T19:00:42.438Z,4.59
2023-01-07T19:03:10.628Z,4.48
2023-01-07T19:05:39.342Z,4.56
2023-01-07T19:08:06.167Z,4.40
2023-01-07T19:10:32.875Z,4.33
2023-01-07T19:12:59.506Z,4.37
2023-01-07T19:15:26.144Z,4.28
2023-01-07T19:17:52.893Z,4.36
2023-01-07T19:20:19.461Z,4.33
2023-01-07T19:22:46.301Z,4.24
2023-01-07T19:25:13.825Z,4.45
2023-01-07T19:27:40.617Z,4.44
2023-01-07T19:30:09.427Z,4.42
2023-01-07T19:32:36.081Z,4.50
2023-01-07T19:35:02.713Z,4.24
2023-01-07T19:37:29.478Z,4.22
2023-01-07T19:39:56.072Z,4.22
2023-01-07T19:42:23.027Z,4.17
2023-01-07T19:44:49.849Z,4.19
2023-01-07T19:47:16.484Z,4.11
2023-01-07T19:49:43.071Z,4.23
2023-01-07T19:52:09.746Z,4.14
2023-01-07T19:54:36.328Z,4.18
2023-01-07T19:57:03.064Z,4.25
2023-01-07T19:59:29.735Z,4.27
2023-01-07T20:01:56.587Z,4.32
2023-01-07T20:04:23.312Z,4.51
2023-01-07T20:06:50.112Z,4.39
2023-01-07T20:09:17.135Z,4.43
2023-01-07T20:11:44.554Z,4.32
2023-01-07T20:14:12.927Z,4.32
2023-01-07T20:16:40.777Z,4.35
2023-01-07T20:19:09.934Z,4.39
2023-01-07T20:21:36.851Z,4.25
2023-01-07T20:24:03.682Z,4.25
2023-01-07T20:26:32.151Z,4.32
2023-01-07T20:29:00.057Z,4.33
2023-01-07T20:31:28.696Z,4.28
2023-01-07T20:33:55.491Z,4.20
2023-01-07T20:36:25.777Z,4.30
2023-01-07T20:38:52.533Z,4.43
2023-01-07T20:41:24.589Z,4.58
2023-01-07T20:43:56.228Z,4.35
2023-01-07T20:46:25.224Z,4.36
2023-01-07T20:48:52.357Z,4.30
2023-01-07T20:51:19.402Z,4.33
2023-01-07T20:53:46.734Z,4.39
2023-01-07T20:56:16.383Z,4.29
2023-01-07T20:58:44.718Z,4.29
2023-01-07T21:01:13.614Z,4.11
2023-01-07T21:03:41.286Z,4.20
2023-01-07T21:06:11.607Z,4.34
2023-01-07T21:08:38.917Z,4.52
2023-01-07T21:11:14.594Z,4.60
2023-01-07T21:13:41.475Z,4.45
2023-01-07T21:16:08.652Z,4.42
2023-01-07T21:18:35.471Z,4.30
2023-01-07T21:21:12.055Z,4.37
2023-01-07T21:24:04.326Z,4.51
2023-01-07T21:26:31.024Z,4.48
2023-01-07T21:28:57.640Z,4.48
2023-01-07T21:31:25.879Z,4.30
2023-01-07T21:33:57.155Z,4.44
2023-01-07T21:36:25.930Z,4.51
2023-01-07T21:38:58.007Z,4.65
2023-01-07T21:41:25.559Z,4.35
2023-01-07T21:43:52.373Z,4.62
2023-01-07T21:46:19.259Z,4.66
2023-01-07T21:48:47.161Z,4.58
2023-01-07T21:51:23.366Z,4.48
2023-01-07T21:53:50.813Z,4.64
2023-01-07T21:56:20.603Z,4.60
2023-01-07T21:58:47.743Z,4.55
2023-01-07T22:01:15.578Z,4.43
2023-01-07T22:03:48.098Z,4.59
2023-01-07T22:06:35.101Z,4.67
2023-01-07T22:09:07.846Z,4.56
2023-01-07T22:11:36.181Z,4.54
2023-01-07T22:14:02.828Z,4.81
2023-01-07T22:16:32.270Z,4.58
2023-01-07T22:18:59.121Z,4.80
2023-01-07T22:21:26.051Z,4.98
2023-01-07T22:23:53.224Z,4.93
2023-01-07T22:26:20.663Z,4.74
2023-01-07T22:28:53.999Z,4.79
2023-01-07T22:31:24.174Z,4.67
2023-01-07T22:33:52.802Z,4.83
2023-01-07T22:36:36.524Z,4.97
2023-01-07T22:39:09.356Z,5.08
2023-01-07T22:41:36.715Z,4.87
2023-01-07T22:44:08.869Z,5.19
2023-01-07T22:46:39.073Z,5.14
2023-01-07T22:49:06.802Z,5.03
2023-01-07T22:51:41.723Z,4.96
2023-01-07T22:54:08.922Z,5.03
2023-01-07T22:56:35.951Z,4.66
2023-01-07T22:59:03.186Z,4.67
2023-01-07T23:01:30.474Z,4.60
2023-01-07T23:03:57.661Z,4.64
2023-01-07T23:06:24.556Z,4.54
2023-01-07T23:08:51.203Z,4.51
2023-01-07T23:11:17.854Z,4.35
2023-01-07T23:13:44.678Z,3.13
2023-01-07T23:16:11.472Z,4.18
2023-01-07T23:18:38.141Z,4.20
2023-01-07T23:21:05.097Z,4.21
2023-01-07T23:23:32.273Z,3.96
2023-01-07T23:25:59.907Z,3.95
2023-01-07T23:28:27.001Z,3.97
2023-01-07T23:30:53.583Z,3.99
2023-01-07T23:33:21.425Z,3.98
2023-01-07T23:35:48.541Z,4.14
2023-01-07T23:38:15.306Z,4.20
2023-01-07T23:40:42.468Z,4.39
2023-01-07T23:43:09.297Z,4.36
2023-01-07T23:45:36.188Z,4.31
2023-01-07T23:48:03.095Z,4.41
2023-01-07T23:50:30.793Z,4.35
2023-01-07T23:52:58.639Z,4.41
2023-01-07T23:55:25.238Z,4.54
2023-01-07T23:57:53.253Z,4.37
